Skip Navigation Links Skip Navigation Links

Current Weather

Nellis Afb, Las Vegas, Nev.

For information only: do not use for flight planning or navigation.
Latest weather
Observation time Monday, June 21, 2021 6:58 PM PDT
Local time Monday, June 21, 2021 7:24 PM PDT
Flight conditions Visual Meteorological Conditions
Winds
Wind direction Southwest (220°)
Wind speed 22 mph
Wind gusting to 30 mph
Peak wind speed 33 mph,
Peak wind direction West-Southwest (240°)
Visibility 10 mi.
Sky condition
Ceiling unlimited
Sky clear
Temperature 104°F
Dewpoint 20°F
Altimeter 29.72 in.Hg
Derived measurements
Relative humidity 5%
Heat index 104°F
Density altitude 4993 ft.
Sea-level pressure 29.63 in.Hg
Remarks
Fully automated report.
System requires maintenance.
Automated weather observing station with precipitation discriminator.
METAR KLSV 220158Z AUTO 22019G26KT 10SM CLR 40/M07 A2972 RMK AO2 PK WND 24029/04 SLP034 T04021067 $

Settings

Location code

InnerDrive.Weather 4.0.6770.0 Release CLR 4.0.30319.42000
Copyright ©2018 Inner Drive Technology. All rights reserved. Portions Copyright ©1986-2018 David Braverman.

Find weather

Site navigation


Skip Navigation Links

Place info

Page info

PayPal - The safer, easier way to pay online!

Return home.

Copyright ©2021 Inner Drive Technology. Purveyors of fine, hand-crafted computer software. Page printed 2021-06-22T02:24:34 UTC.